Terminal Aerodrome Forecast
Issued by NWS

Current Version | Previous Version | Graphics & Text | Print | Product List | Glossary On
Versions: 1 2 3 4 5 6 7 8 9 10 11 12 13 14 15 16 17 18 19 20 21 22 23 24
000
FTUS41 KPBZ 130500
TAFMGW
TAF
KMGW 130520Z 1306/1406 VRB05KT P6SM OVC100
     FM131000 VRB05KT 6SM -RA OVC025
      TEMPO 1310/1314 5SM -RA BR OVC010
     FM131800 31010KT P6SM BKN050=

USA.gov is the U.S. government's official web portal to all federal, state and local government web resources and services.